sensor_id;sensor_type;location;lat;lon;timestamp;pressure;altitude;pressure_sealevel;temperature;humidity
63281;BME280;49406;51.044;3.766;2023-05-20T00:00:06;102422.96;;;12.41;100.00
63281;BME280;49406;51.044;3.766;2023-05-20T00:02:41;102420.17;;;12.34;100.00
63281;BME280;49406;51.044;3.766;2023-05-20T00:05:16;102419.71;;;12.30;100.00
63281;BME280;49406;51.044;3.766;2023-05-20T00:07:51;102416.80;;;12.33;100.00
63281;BME280;49406;51.044;3.766;2023-05-20T00:10:26;102414.86;;;12.40;100.00
63281;BME280;49406;51.044;3.766;2023-05-20T00:13:00;102418.15;;;12.38;100.00
63281;BME280;49406;51.044;3.766;2023-05-20T00:15:35;102411.00;;;12.32;100.00
63281;BME280;49406;51.044;3.766;2023-05-20T00:18:10;102415.23;;;12.27;100.00
63281;BME280;49406;51.044;3.766;2023-05-20T00:20:44;102409.52;;;12.23;100.00
63281;BME280;49406;51.044;3.766;2023-05-20T00:23:19;102416.39;;;12.30;100.00
63281;BME280;49406;51.044;3.766;2023-05-20T00:25:53;102416.37;;;12.29;100.00
63281;BME280;49406;51.044;3.766;2023-05-20T00:28:28;102418.55;;;12.26;100.00
63281;BME280;49406;51.044;3.766;2023-05-20T00:31:03;102416.14;;;12.21;100.00
63281;BME280;49406;51.044;3.766;2023-05-20T00:33:37;102415.91;;;12.26;100.00
63281;BME280;49406;51.044;3.766;2023-05-20T00:36:12;102414.15;;;12.32;100.00
63281;BME280;49406;51.044;3.766;2023-05-20T00:38:47;102410.91;;;12.28;100.00
63281;BME280;49406;51.044;3.766;2023-05-20T00:41:21;102413.27;;;12.25;100.00
63281;BME280;49406;51.044;3.766;2023-05-20T00:43:56;102409.77;;;12.19;100.00
63281;BME280;49406;51.044;3.766;2023-05-20T00:46:31;102408.79;;;12.15;100.00
63281;BME280;49406;51.044;3.766;2023-05-20T00:49:06;102407.77;;;12.16;100.00
63281;BME280;49406;51.044;3.766;2023-05-20T00:51:41;102405.65;;;12.23;100.00
63281;BME280;49406;51.044;3.766;2023-05-20T00:54:16;102404.28;;;12.24;100.00
63281;BME280;49406;51.044;3.766;2023-05-20T00:56:51;102399.80;;;12.26;100.00
63281;BME280;49406;51.044;3.766;2023-05-20T00:59:26;102395.35;;;12.24;100.00
63281;BME280;49406;51.044;3.766;2023-05-20T01:02:01;102391.88;;;12.19;100.00
63281;BME280;49406;51.044;3.766;2023-05-20T01:04:36;102388.41;;;12.13;100.00
63281;BME280;49406;51.044;3.766;2023-05-20T01:07:11;102391.14;;;12.11;100.00
63281;BME280;49406;51.044;3.766;2023-05-20T01:09:46;102395.23;;;12.19;100.00
63281;BME280;49406;51.044;3.766;2023-05-20T01:12:25;102392.26;;;12.20;100.00
63281;BME280;49406;51.044;3.766;2023-05-20T01:15:02;102391.83;;;12.17;100.00
63281;BME280;49406;51.044;3.766;2023-05-20T01:17:42;102386.45;;;12.12;100.00
63281;BME280;49406;51.044;3.766;2023-05-20T01:20:18;102385.88;;;12.10;100.00
63281;BME280;49406;51.044;3.766;2023-05-20T01:22:55;102384.36;;;12.07;100.00
63281;BME280;49406;51.044;3.766;2023-05-20T01:25:30;102385.04;;;12.12;100.00
63281;BME280;49406;51.044;3.766;2023-05-20T01:28:05;102387.55;;;12.14;100.00
63281;BME280;49406;51.044;3.766;2023-05-20T01:30:46;102383.80;;;12.11;100.00
63281;BME280;49406;51.044;3.766;2023-05-20T01:33:24;102386.53;;;12.09;100.00
63281;BME280;49406;51.044;3.766;2023-05-20T01:35:59;102384.55;;;12.07;100.00
63281;BME280;49406;51.044;3.766;2023-05-20T01:38:35;102379.98;;;12.13;100.00
63281;BME280;49406;51.044;3.766;2023-05-20T01:41:12;102379.24;;;12.18;100.00
63281;BME280;49406;51.044;3.766;2023-05-20T01:43:47;102381.97;;;12.15;100.00
63281;BME280;49406;51.044;3.766;2023-05-20T01:46:21;102376.83;;;12.13;100.00
63281;BME280;49406;51.044;3.766;2023-05-20T01:48:56;102374.64;;;12.03;100.00
63281;BME280;49406;51.044;3.766;2023-05-20T01:51:31;102374.00;;;11.99;100.00
63281;BME280;49406;51.044;3.766;2023-05-20T01:54:07;102368.53;;;11.98;100.00
63281;BME280;49406;51.044;3.766;2023-05-20T01:56:42;102367.61;;;12.03;100.00
63281;BME280;49406;51.044;3.766;2023-05-20T01:59:16;102368.89;;;11.98;100.00
63281;BME280;49406;51.044;3.766;2023-05-20T02:01:51;102367.42;;;11.89;100.00
63281;BME280;49406;51.044;3.766;2023-05-20T02:04:26;102372.16;;;11.83;100.00
63281;BME280;49406;51.044;3.766;2023-05-20T02:07:00;102371.81;;;11.78;100.00
63281;BME280;49406;51.044;3.766;2023-05-20T02:09:35;102376.70;;;11.77;100.00
63281;BME280;49406;51.044;3.766;2023-05-20T02:12:11;102373.23;;;11.84;100.00
63281;BME280;49406;51.044;3.766;2023-05-20T02:14:49;102370.60;;;11.84;100.00
63281;BME280;49406;51.044;3.766;2023-05-20T02:17:23;102374.91;;;11.81;100.00
63281;BME280;49406;51.044;3.766;2023-05-20T02:19:58;102375.58;;;11.75;100.00
63281;BME280;49406;51.044;3.766;2023-05-20T02:22:33;102371.20;;;11.68;100.00
63281;BME280;49406;51.044;3.766;2023-05-20T02:25:08;102371.83;;;11.66;100.00
63281;BME280;49406;51.044;3.766;2023-05-20T02:27:43;102368.06;;;11.69;100.00
63281;BME280;49406;51.044;3.766;2023-05-20T02:30:18;102369.23;;;11.74;100.00
63281;BME280;49406;51.044;3.766;2023-05-20T02:32:53;102364.48;;;11.73;100.00
63281;BME280;49406;51.044;3.766;2023-05-20T02:35:28;102369.25;;;11.68;100.00
63281;BME280;49406;51.044;3.766;2023-05-20T02:38:02;102366.80;;;11.61;100.00
63281;BME280;49406;51.044;3.766;2023-05-20T02:40:37;102367.86;;;11.56;100.00
63281;BME280;49406;51.044;3.766;2023-05-20T02:43:12;102368.45;;;11.58;100.00
63281;BME280;49406;51.044;3.766;2023-05-20T02:45:46;102367.10;;;11.59;100.00
63281;BME280;49406;51.044;3.766;2023-05-20T02:48:21;102363.78;;;11.54;100.00
63281;BME280;49406;51.044;3.766;2023-05-20T02:50:56;102361.47;;;11.46;100.00
63281;BME280;49406;51.044;3.766;2023-05-20T02:53:30;102358.11;;;11.40;100.00
63281;BME280;49406;51.044;3.766;2023-05-20T02:56:05;102357.60;;;11.34;100.00
63281;BME280;49406;51.044;3.766;2023-05-20T02:58:40;102358.84;;;11.28;100.00
63281;BME280;49406;51.044;3.766;2023-05-20T03:01:15;102360.61;;;11.24;100.00
63281;BME280;49406;51.044;3.766;2023-05-20T03:03:50;102359.83;;;11.32;100.00
63281;BME280;49406;51.044;3.766;2023-05-20T03:06:25;102354.99;;;11.35;100.00
63281;BME280;49406;51.044;3.766;2023-05-20T03:08:59;102360.58;;;11.34;100.00
63281;BME280;49406;51.044;3.766;2023-05-20T03:11:34;102357.17;;;11.26;100.00
63281;BME280;49406;51.044;3.766;2023-05-20T03:14:08;102355.63;;;11.21;100.00
63281;BME280;49406;51.044;3.766;2023-05-20T03:16:43;102359.66;;;11.14;100.00
63281;BME280;49406;51.044;3.766;2023-05-20T03:19:18;102359.48;;;11.21;100.00
63281;BME280;49406;51.044;3.766;2023-05-20T03:21:53;102357.95;;;11.23;100.00
63281;BME280;49406;51.044;3.766;2023-05-20T03:24:27;102355.57;;;11.19;100.00
63281;BME280;49406;51.044;3.766;2023-05-20T03:27:02;102355.94;;;11.13;100.00
63281;BME280;49406;51.044;3.766;2023-05-20T03:29:37;102352.29;;;11.08;100.00
63281;BME280;49406;51.044;3.766;2023-05-20T03:32:11;102350.05;;;11.04;100.00
63281;BME280;49406;51.044;3.766;2023-05-20T03:34:46;102350.37;;;11.03;100.00
63281;BME280;49406;51.044;3.766;2023-05-20T03:37:19;102349.50;;;11.03;100.00
63281;BME280;49406;51.044;3.766;2023-05-20T03:39:53;102348.82;;;11.09;100.00
63281;BME280;49406;51.044;3.766;2023-05-20T03:42:28;102349.93;;;11.06;100.00
63281;BME280;49406;51.044;3.766;2023-05-20T03:45:03;102351.35;;;11.01;100.00
63281;BME280;49406;51.044;3.766;2023-05-20T03:47:38;102349.15;;;10.97;100.00
63281;BME280;49406;51.044;3.766;2023-05-20T03:50:13;102352.46;;;10.91;100.00
63281;BME280;49406;51.044;3.766;2023-05-20T03:52:48;102353.09;;;10.94;100.00
63281;BME280;49406;51.044;3.766;2023-05-20T03:55:22;102349.52;;;10.97;100.00
63281;BME280;49406;51.044;3.766;2023-05-20T03:57:58;102346.48;;;10.95;100.00
63281;BME280;49406;51.044;3.766;2023-05-20T04:00:33;102343.00;;;10.91;100.00
63281;BME280;49406;51.044;3.766;2023-05-20T04:03:08;102343.29;;;10.83;100.00
63281;BME280;49406;51.044;3.766;2023-05-20T04:05:42;102346.94;;;10.82;100.00
63281;BME280;49406;51.044;3.766;2023-05-20T04:08:17;102345.43;;;10.78;100.00
63281;BME280;49406;51.044;3.766;2023-05-20T04:10:53;102344.92;;;10.79;100.00
63281;BME280;49406;51.044;3.766;2023-05-20T04:13:28;102341.55;;;10.83;100.00
63281;BME280;49406;51.044;3.766;2023-05-20T04:16:03;102343.11;;;10.83;100.00
63281;BME280;49406;51.044;3.766;2023-05-20T04:18:38;102346.02;;;10.80;100.00
63281;BME280;49406;51.044;3.766;2023-05-20T04:21:13;102348.52;;;10.77;100.00
63281;BME280;49406;51.044;3.766;2023-05-20T04:23:48;102351.14;;;10.77;100.00
63281;BME280;49406;51.044;3.766;2023-05-20T04:26:23;102348.98;;;10.75;100.00
63281;BME280;49406;51.044;3.766;2023-05-20T04:28:57;102355.46;;;10.86;100.00
63281;BME280;49406;51.044;3.766;2023-05-20T04:31:33;102360.98;;;10.95;100.00
63281;BME280;49406;51.044;3.766;2023-05-20T04:34:08;102362.67;;;10.99;100.00
63281;BME280;49406;51.044;3.766;2023-05-20T04:36:43;102360.20;;;10.98;100.00
63281;BME280;49406;51.044;3.766;2023-05-20T04:39:17;102361.11;;;10.99;100.00
63281;BME280;49406;51.044;3.766;2023-05-20T04:41:53;102357.70;;;11.02;100.00
63281;BME280;49406;51.044;3.766;2023-05-20T04:44:27;102358.04;;;11.02;100.00
63281;BME280;49406;51.044;3.766;2023-05-20T04:47:02;102362.05;;;11.01;100.00
63281;BME280;49406;51.044;3.766;2023-05-20T04:49:40;102362.72;;;11.06;100.00
63281;BME280;49406;51.044;3.766;2023-05-20T04:52:14;102357.77;;;11.16;100.00
63281;BME280;49406;51.044;3.766;2023-05-20T04:54:50;102359.44;;;11.19;100.00
63281;BME280;49406;51.044;3.766;2023-05-20T04:57:25;102353.75;;;11.23;100.00
63281;BME280;49406;51.044;3.766;2023-05-20T04:59:59;102355.16;;;11.23;100.00
63281;BME280;49406;51.044;3.766;2023-05-20T05:02:34;102356.77;;;11.24;100.00
63281;BME280;49406;51.044;3.766;2023-05-20T05:05:10;102355.30;;;11.27;100.00
63281;BME280;49406;51.044;3.766;2023-05-20T05:07:44;102350.83;;;11.30;100.00
63281;BME280;49406;51.044;3.766;2023-05-20T05:10:19;102351.11;;;11.34;100.00
63281;BME280;49406;51.044;3.766;2023-05-20T05:12:55;102349.07;;;11.48;100.00
63281;BME280;49406;51.044;3.766;2023-05-20T05:15:30;102353.10;;;11.60;100.00
63281;BME280;49406;51.044;3.766;2023-05-20T05:18:04;102347.61;;;11.71;100.00
63281;BME280;49406;51.044;3.766;2023-05-20T05:20:39;102346.82;;;11.79;100.00
63281;BME280;49406;51.044;3.766;2023-05-20T05:23:14;102347.06;;;11.95;100.00
63281;BME280;49406;51.044;3.766;2023-05-20T05:25:53;102343.31;;;12.26;100.00
63281;BME280;49406;51.044;3.766;2023-05-20T05:28:28;102347.35;;;12.77;100.00
63281;BME280;49406;51.044;3.766;2023-05-20T05:31:02;102348.92;;;13.30;98.99
63281;BME280;49406;51.044;3.766;2023-05-20T05:33:38;102342.17;;;13.80;95.22
63281;BME280;49406;51.044;3.766;2023-05-20T05:36:13;102345.91;;;14.21;92.54
63281;BME280;49406;51.044;3.766;2023-05-20T05:38:48;102350.27;;;14.71;91.19
63281;BME280;49406;51.044;3.766;2023-05-20T05:41:23;102351.30;;;15.05;87.75
63281;BME280;49406;51.044;3.766;2023-05-20T05:43:58;102352.73;;;15.34;86.62
63281;BME280;49406;51.044;3.766;2023-05-20T05:46:33;102352.02;;;15.77;85.14
63281;BME280;49406;51.044;3.766;2023-05-20T05:49:07;102347.52;;;16.02;82.80
63281;BME280;49406;51.044;3.766;2023-05-20T05:51:42;102347.02;;;15.86;80.19
63281;BME280;49406;51.044;3.766;2023-05-20T05:54:16;102348.13;;;15.61;80.03
63281;BME280;49406;51.044;3.766;2023-05-20T05:56:52;102344.25;;;15.60;80.25
63281;BME280;49406;51.044;3.766;2023-05-20T05:59:28;102340.48;;;15.87;79.36
63281;BME280;49406;51.044;3.766;2023-05-20T06:02:03;102338.65;;;16.15;78.50
63281;BME280;49406;51.044;3.766;2023-05-20T06:04:36;102342.16;;;16.55;77.03
63281;BME280;49406;51.044;3.766;2023-05-20T06:07:11;102344.15;;;16.86;74.45
63281;BME280;49406;51.044;3.766;2023-05-20T06:09:46;102346.40;;;17.07;72.37
63281;BME280;49406;51.044;3.766;2023-05-20T06:12:20;102349.81;;;17.19;72.41
63281;BME280;49406;51.044;3.766;2023-05-20T06:14:55;102346.86;;;17.30;71.20
63281;BME280;49406;51.044;3.766;2023-05-20T06:17:30;102345.84;;;17.39;69.43
63281;BME280;49406;51.044;3.766;2023-05-20T06:20:06;102340.02;;;17.47;69.61
63281;BME280;49406;51.044;3.766;2023-05-20T06:22:40;102333.38;;;17.63;69.94
63281;BME280;49406;51.044;3.766;2023-05-20T06:25:15;102336.45;;;17.89;69.09
63281;BME280;49406;51.044;3.766;2023-05-20T06:27:50;102328.88;;;18.05;66.89
63281;BME280;49406;51.044;3.766;2023-05-20T06:30:24;102329.60;;;18.16;66.95
63281;BME280;49406;51.044;3.766;2023-05-20T06:32:59;102327.11;;;18.25;65.60
63281;BME280;49406;51.044;3.766;2023-05-20T06:35:34;102322.50;;;18.29;65.20
63281;BME280;49406;51.044;3.766;2023-05-20T06:38:08;102320.91;;;18.39;65.12
63281;BME280;49406;51.044;3.766;2023-05-20T06:40:43;102320.02;;;18.54;64.25
63281;BME280;49406;51.044;3.766;2023-05-20T06:43:18;102318.59;;;18.72;64.76
63281;BME280;49406;51.044;3.766;2023-05-20T06:45:53;102319.08;;;18.92;64.11
63281;BME280;49406;51.044;3.766;2023-05-20T06:48:28;102317.25;;;19.09;62.00
63281;BME280;49406;51.044;3.766;2023-05-20T06:51:02;102317.04;;;19.19;62.26
63281;BME280;49406;51.044;3.766;2023-05-20T06:53:37;102316.84;;;19.22;60.35
63281;BME280;49406;51.044;3.766;2023-05-20T06:56:12;102311.30;;;19.30;62.02
63281;BME280;49406;51.044;3.766;2023-05-20T06:58:46;102312.46;;;19.48;60.72
63281;BME280;49406;51.044;3.766;2023-05-20T07:01:21;102308.45;;;19.70;60.96
63281;BME280;49406;51.044;3.766;2023-05-20T07:03:56;102303.67;;;19.94;59.76
63281;BME280;49406;51.044;3.766;2023-05-20T07:06:30;102303.58;;;20.07;59.34
63281;BME280;49406;51.044;3.766;2023-05-20T07:09:05;102299.03;;;20.22;58.84
63281;BME280;49406;51.044;3.766;2023-05-20T07:11:40;102297.27;;;20.40;58.70
63281;BME280;49406;51.044;3.766;2023-05-20T07:14:14;102297.61;;;20.61;57.65
63281;BME280;49406;51.044;3.766;2023-05-20T07:16:49;102295.60;;;20.82;57.95
63281;BME280;49406;51.044;3.766;2023-05-20T07:19:23;102292.31;;;20.90;56.13
63281;BME280;49406;51.044;3.766;2023-05-20T07:21:58;102292.84;;;20.91;55.40
63281;BME280;49406;51.044;3.766;2023-05-20T07:27:07;102292.27;;;20.93;56.46
63281;BME280;49406;51.044;3.766;2023-05-20T07:29:42;102291.58;;;21.20;56.00
63281;BME280;49406;51.044;3.766;2023-05-20T07:32:17;102293.90;;;21.37;53.78
63281;BME280;49406;51.044;3.766;2023-05-20T07:34:52;102290.70;;;21.21;53.25
63281;BME280;49406;51.044;3.766;2023-05-20T07:37:26;102297.05;;;21.10;53.80
63281;BME280;49406;51.044;3.766;2023-05-20T07:40:01;102288.33;;;21.11;53.99
63281;BME280;49406;51.044;3.766;2023-05-20T07:42:37;102297.07;;;20.93;53.63
63281;BME280;49406;51.044;3.766;2023-05-20T07:45:12;102292.57;;;20.84;54.15
63281;BME280;49406;51.044;3.766;2023-05-20T07:47:46;102291.36;;;20.95;55.06
63281;BME280;49406;51.044;3.766;2023-05-20T07:50:21;102284.16;;;20.88;53.89
63281;BME280;49406;51.044;3.766;2023-05-20T07:52:56;102279.51;;;20.75;54.08
63281;BME280;49406;51.044;3.766;2023-05-20T07:55:32;102277.25;;;20.71;54.79
63281;BME280;49406;51.044;3.766;2023-05-20T07:58:07;102279.29;;;20.78;55.15
63281;BME280;49406;51.044;3.766;2023-05-20T08:00:42;102274.61;;;20.84;54.73
63281;BME280;49406;51.044;3.766;2023-05-20T08:03:17;102272.30;;;21.13;54.80
63281;BME280;49406;51.044;3.766;2023-05-20T08:05:51;102273.64;;;21.33;53.19
63281;BME280;49406;51.044;3.766;2023-05-20T08:08:26;102275.45;;;21.44;52.92
63281;BME280;49406;51.044;3.766;2023-05-20T08:11:02;102278.02;;;21.40;52.35
63281;BME280;49406;51.044;3.766;2023-05-20T08:13:37;102272.51;;;21.39;52.12
63281;BME280;49406;51.044;3.766;2023-05-20T08:16:12;102269.31;;;21.39;51.77
63281;BME280;49406;51.044;3.766;2023-05-20T08:18:46;102269.78;;;21.43;52.09
63281;BME280;49406;51.044;3.766;2023-05-20T08:21:21;102264.95;;;21.44;51.61
63281;BME280;49406;51.044;3.766;2023-05-20T08:23:56;102263.11;;;21.49;52.46
63281;BME280;49406;51.044;3.766;2023-05-20T08:26:30;102253.81;;;21.64;52.29
63281;BME280;49406;51.044;3.766;2023-05-20T08:29:05;102259.58;;;21.82;50.74
63281;BME280;49406;51.044;3.766;2023-05-20T08:31:40;102256.41;;;21.68;50.43
63281;BME280;49406;51.044;3.766;2023-05-20T08:34:15;102254.23;;;21.82;52.04
63281;BME280;49406;51.044;3.766;2023-05-20T08:36:49;102259.23;;;22.04;50.64
63281;BME280;49406;51.044;3.766;2023-05-20T08:39:25;102260.94;;;22.09;50.14
63281;BME280;49406;51.044;3.766;2023-05-20T08:42:00;102258.59;;;22.21;50.34
63281;BME280;49406;51.044;3.766;2023-05-20T08:44:36;102254.95;;;22.25;48.99
63281;BME280;49406;51.044;3.766;2023-05-20T08:47:11;102246.52;;;22.19;49.03
63281;BME280;49406;51.044;3.766;2023-05-20T08:49:46;102244.63;;;22.15;48.89
63281;BME280;49406;51.044;3.766;2023-05-20T08:52:22;102243.30;;;22.30;48.82
63281;BME280;49406;51.044;3.766;2023-05-20T08:54:57;102242.83;;;22.44;48.73
63281;BME280;49406;51.044;3.766;2023-05-20T08:57:32;102246.18;;;22.46;47.72
63281;BME280;49406;51.044;3.766;2023-05-20T09:00:09;102246.38;;;22.55;47.85
63281;BME280;49406;51.044;3.766;2023-05-20T09:02:46;102243.67;;;22.75;47.22
63281;BME280;49406;51.044;3.766;2023-05-20T09:05:21;102238.14;;;23.01;45.80
63281;BME280;49406;51.044;3.766;2023-05-20T09:08:05;102231.75;;;23.08;45.45
63281;BME280;49406;51.044;3.766;2023-05-20T09:10:41;102226.50;;;22.86;44.74
63281;BME280;49406;51.044;3.766;2023-05-20T09:13:16;102231.00;;;22.84;45.16
63281;BME280;49406;51.044;3.766;2023-05-20T09:15:50;102228.13;;;22.77;43.67
63281;BME280;49406;51.044;3.766;2023-05-20T09:18:25;102230.33;;;22.65;43.90
63281;BME280;49406;51.044;3.766;2023-05-20T09:21:05;102223.95;;;22.80;44.77
63281;BME280;49406;51.044;3.766;2023-05-20T09:23:40;102221.33;;;23.12;44.30
63281;BME280;49406;51.044;3.766;2023-05-20T09:26:20;102221.57;;;23.24;43.20
63281;BME280;49406;51.044;3.766;2023-05-20T09:28:56;102224.08;;;22.74;43.00
63281;BME280;49406;51.044;3.766;2023-05-20T09:31:32;102213.76;;;22.73;43.85
63281;BME280;49406;51.044;3.766;2023-05-20T09:34:06;102212.83;;;22.84;43.52
63281;BME280;49406;51.044;3.766;2023-05-20T09:36:43;102211.92;;;23.01;43.37
63281;BME280;49406;51.044;3.766;2023-05-20T09:39:24;102196.50;;;23.06;42.06
63281;BME280;49406;51.044;3.766;2023-05-20T09:42:11;102211.05;;;23.01;41.35
63281;BME280;49406;51.044;3.766;2023-05-20T09:44:50;102194.57;;;23.12;40.30
63281;BME280;49406;51.044;3.766;2023-05-20T09:47:25;102201.72;;;22.87;41.40
63281;BME280;49406;51.044;3.766;2023-05-20T09:50:00;102200.02;;;22.99;41.71
63281;BME280;49406;51.044;3.766;2023-05-20T09:52:37;102201.25;;;23.16;41.79
63281;BME280;49406;51.044;3.766;2023-05-20T09:55:12;102194.29;;;23.09;40.66
63281;BME280;49406;51.044;3.766;2023-05-20T09:57:47;102188.96;;;23.07;40.66
63281;BME280;49406;51.044;3.766;2023-05-20T10:00:22;102192.48;;;22.93;40.51
63281;BME280;49406;51.044;3.766;2023-05-20T10:02:57;102184.52;;;22.82;41.41
63281;BME280;49406;51.044;3.766;2023-05-20T10:05:36;102182.30;;;22.94;41.44
63281;BME280;49406;51.044;3.766;2023-05-20T10:08:43;102180.95;;;23.06;40.82
63281;BME280;49406;51.044;3.766;2023-05-20T10:11:31;102181.96;;;23.25;40.52
63281;BME280;49406;51.044;3.766;2023-05-20T10:14:21;102167.08;;;23.20;41.26
63281;BME280;49406;51.044;3.766;2023-05-20T10:17:04;102166.95;;;23.55;41.12
63281;BME280;49406;51.044;3.766;2023-05-20T10:19:42;102171.27;;;23.39;40.49
63281;BME280;49406;51.044;3.766;2023-05-20T10:22:26;102166.16;;;23.21;40.47
63281;BME280;49406;51.044;3.766;2023-05-20T10:25:08;102164.54;;;23.07;41.31
63281;BME280;49406;51.044;3.766;2023-05-20T10:27:46;102163.05;;;23.01;40.71
63281;BME280;49406;51.044;3.766;2023-05-20T10:30:22;102167.55;;;23.08;41.04
63281;BME280;49406;51.044;3.766;2023-05-20T10:33:03;102160.39;;;23.25;40.25
63281;BME280;49406;51.044;3.766;2023-05-20T10:35:49;102154.37;;;23.37;40.66
63281;BME280;49406;51.044;3.766;2023-05-20T10:38:24;102151.36;;;23.21;40.90
63281;BME280;49406;51.044;3.766;2023-05-20T10:41:09;102146.88;;;23.15;40.43
63281;BME280;49406;51.044;3.766;2023-05-20T10:43:44;102145.02;;;23.17;40.52
63281;BME280;49406;51.044;3.766;2023-05-20T10:46:17;102145.22;;;23.17;40.03
63281;BME280;49406;51.044;3.766;2023-05-20T10:48:52;102127.81;;;23.28;39.55
63281;BME280;49406;51.044;3.766;2023-05-20T10:51:29;102135.96;;;23.24;39.10
63281;BME280;49406;51.044;3.766;2023-05-20T10:54:08;102130.38;;;23.33;39.57
63281;BME280;49406;51.044;3.766;2023-05-20T10:56:51;102127.38;;;23.31;39.72
63281;BME280;49406;51.044;3.766;2023-05-20T10:59:26;102123.77;;;23.26;39.73
63281;BME280;49406;51.044;3.766;2023-05-20T11:02:01;102128.57;;;23.33;39.99
63281;BME280;49406;51.044;3.766;2023-05-20T11:04:36;102126.54;;;23.79;39.69
63281;BME280;49406;51.044;3.766;2023-05-20T11:07:11;102128.85;;;24.19;38.88
63281;BME280;49406;51.044;3.766;2023-05-20T11:09:51;102133.29;;;24.33;38.11
63281;BME280;49406;51.044;3.766;2023-05-20T11:12:26;102125.14;;;24.17;37.75
63281;BME280;49406;51.044;3.766;2023-05-20T11:15:01;102126.32;;;23.94;38.21
63281;BME280;49406;51.044;3.766;2023-05-20T11:17:36;102118.63;;;23.75;38.17
63281;BME280;49406;51.044;3.766;2023-05-20T11:20:13;102122.38;;;23.54;39.64
63281;BME280;49406;51.044;3.766;2023-05-20T11:22:47;102117.39;;;23.32;38.85
63281;BME280;49406;51.044;3.766;2023-05-20T11:25:22;102113.50;;;23.37;39.34
63281;BME280;49406;51.044;3.766;2023-05-20T11:27:57;102111.77;;;23.48;39.59
63281;BME280;49406;51.044;3.766;2023-05-20T11:30:32;102110.14;;;23.78;39.58
63281;BME280;49406;51.044;3.766;2023-05-20T11:33:10;102101.73;;;23.92;39.18
63281;BME280;49406;51.044;3.766;2023-05-20T11:35:47;102095.81;;;23.86;38.20
63281;BME280;49406;51.044;3.766;2023-05-20T11:38:20;102098.41;;;23.34;38.41
63281;BME280;49406;51.044;3.766;2023-05-20T11:40:56;102102.81;;;23.14;39.65
63281;BME280;49406;51.044;3.766;2023-05-20T11:43:34;102099.00;;;23.32;39.06
63281;BME280;49406;51.044;3.766;2023-05-20T11:46:10;102101.42;;;23.49;38.99
63281;BME280;49406;51.044;3.766;2023-05-20T11:48:53;102096.39;;;23.29;38.86
63281;BME280;49406;51.044;3.766;2023-05-20T11:51:29;102087.55;;;23.11;39.91
63281;BME280;49406;51.044;3.766;2023-05-20T11:54:05;102091.23;;;23.14;39.64
63281;BME280;49406;51.044;3.766;2023-05-20T11:56:40;102084.23;;;23.37;39.06
63281;BME280;49406;51.044;3.766;2023-05-20T11:59:17;102078.42;;;23.76;38.88
63281;BME280;49406;51.044;3.766;2023-05-20T12:01:52;102085.52;;;23.97;37.66
63281;BME280;49406;51.044;3.766;2023-05-20T12:04:26;102075.80;;;23.87;36.98
63281;BME280;49406;51.044;3.766;2023-05-20T12:07:01;102072.50;;;23.84;36.62
63281;BME280;49406;51.044;3.766;2023-05-20T12:09:39;102068.92;;;24.02;37.55
63281;BME280;49406;51.044;3.766;2023-05-20T12:12:13;102059.23;;;24.29;37.67
63281;BME280;49406;51.044;3.766;2023-05-20T12:14:48;102058.41;;;24.51;36.91
63281;BME280;49406;51.044;3.766;2023-05-20T12:17:23;102058.98;;;24.56;36.42
63281;BME280;49406;51.044;3.766;2023-05-20T12:19:57;102059.91;;;24.55;36.66
63281;BME280;49406;51.044;3.766;2023-05-20T12:22:32;102057.38;;;24.38;36.07
63281;BME280;49406;51.044;3.766;2023-05-20T12:25:09;102054.79;;;24.16;36.71
63281;BME280;49406;51.044;3.766;2023-05-20T12:27:44;102050.76;;;24.19;37.75
63281;BME280;49406;51.044;3.766;2023-05-20T12:30:21;102057.21;;;24.12;37.70
63281;BME280;49406;51.044;3.766;2023-05-20T12:32:56;102059.35;;;24.19;37.27
63281;BME280;49406;51.044;3.766;2023-05-20T12:35:39;102055.13;;;24.22;37.39
63281;BME280;49406;51.044;3.766;2023-05-20T12:38:14;102051.25;;;24.33;36.88
63281;BME280;49406;51.044;3.766;2023-05-20T12:40:48;102056.25;;;24.51;36.29
63281;BME280;49406;51.044;3.766;2023-05-20T12:43:23;102053.73;;;24.63;36.26
63281;BME280;49406;51.044;3.766;2023-05-20T12:45:57;102048.98;;;24.66;37.25
63281;BME280;49406;51.044;3.766;2023-05-20T12:48:32;102054.98;;;24.57;36.51
63281;BME280;49406;51.044;3.766;2023-05-20T12:51:07;102052.92;;;24.31;36.98
63281;BME280;49406;51.044;3.766;2023-05-20T12:53:41;102050.52;;;24.52;37.80
63281;BME280;49406;51.044;3.766;2023-05-20T12:56:16;102044.28;;;24.91;36.78
63281;BME280;49406;51.044;3.766;2023-05-20T12:58:51;102046.25;;;24.96;36.85
63281;BME280;49406;51.044;3.766;2023-05-20T13:01:26;102038.55;;;25.03;37.38
63281;BME280;49406;51.044;3.766;2023-05-20T13:04:00;102042.95;;;25.05;37.08
63281;BME280;49406;51.044;3.766;2023-05-20T13:06:35;102037.73;;;24.88;36.58
63281;BME280;49406;51.044;3.766;2023-05-20T13:09:10;102032.77;;;24.87;36.48
63281;BME280;49406;51.044;3.766;2023-05-20T13:11:44;102032.63;;;24.85;36.66
63281;BME280;49406;51.044;3.766;2023-05-20T13:14:19;102036.49;;;24.82;36.78
63281;BME280;49406;51.044;3.766;2023-05-20T13:16:54;102033.87;;;24.97;37.03
63281;BME280;49406;51.044;3.766;2023-05-20T13:19:28;102029.98;;;25.12;36.62
63281;BME280;49406;51.044;3.766;2023-05-20T13:22:03;102027.87;;;25.27;36.36
63281;BME280;49406;51.044;3.766;2023-05-20T13:24:38;102032.39;;;25.26;36.10
63281;BME280;49406;51.044;3.766;2023-05-20T13:27:13;102030.46;;;25.25;36.02
63281;BME280;49406;51.044;3.766;2023-05-20T13:29:47;102029.00;;;25.15;36.23